ボードー の空港の天気 - METARとTAF

Bodo Vi ( ENBO / BOO ) - ノルウェー ヌールラン県ボードー
飛行場実況気象(Metar)
観測時間10/23 15:20 CEST (10/23 13:20 UTC)
風向・風速東 8m/s
視程10km以上
天気現象
なし
気温5℃
湿度52%
気圧1025hPa
METARENBO 231320Z 08015KT CAVOK 05/M04 Q1025 NOSIG
過去の天気等 Google飛行場航空写真 Wunderground天気予報

過去48時間のMETAR

飛行場予報(TAF)
発表時間: -
TAF ENBO 2312/2412 09015KT CAVOK